TNCM

Details ICAO TNCM (SXM)
Name Princess Juliana Intl
Region Caribbean Netherlands, Aruba, Curaçao, Sint Maarten
Timezone Unknown
Plans Departing 6854
Arriving 9870
Stats Elevation 14 ft / 4 m (AMSL)
Location 18.040900° -63.108900°
Runways 1
Magnetic Variation 14.406° W
Sunrise 2020-11-25 10:25:48 UTC / 2020-11-25 10:25:48 Local
Sunset 2020-11-25 21:36:20 UTC / 2020-11-25 21:36:20 Local
Advertisement - Login to hide

Runways

ID Width Length Bearing (true/mag) Surface Threshold Overrun Markings Lighting
10 148 ft / 45 m 7,553 ft / 2,302 m 81.44° / 95.85° ASPHALT 331 ft / 101 m 164 ft / 50 m PREC-APP EDGE THRESHOLD REIL-OMNI
28 148 ft / 45 m 7,553 ft / 2,302 m 261.45° / 275.85° ASPHALT 0 ft / 0 m 200 ft / 61 m APP EDGE THRESHOLD

Map

Weather


0- 5 10 15 20 25 30 35+ Temperature / °C

Clouds and Precipitation
Forecast for 2020-11-26 00:00 UTC. Updated 4 hours ago

Ground ~20,000 ft ~40,000 ft Winds

METAR

TNCM 260100Z 06005KT 020V080 9999 FEW020 26/22 Q1014

TAF

TAF TNCM 252320Z 2600/2624 05006KT P6SM FEW018 FEW035 FM260330 VRB04KT P6SM VCSH SCT018 SCT035 FM261400 08011KT P6SM SCT022

Frequencies

Tower 118.70 MHz Juliana Tower
Departure 128.95 MHz Juliana Departure
Approach 128.95 MHz Juliana Approach
Recorded 127.65 MHz ATIS
Warning: Do not use this data for real-world aviation or navigation. No guarantee of current accuracy is given.